Time;durP1;ratioP1;P1;durP2;ratioP2;P2;SDS_P1;SDS_P2;PMS_P1;PMS_P2;Temp;Humidity;BMP_temperature;BMP_pressure;BME280_temperature;BME280_humidity;BME280_pressure;Samples;Min_cycle;Max_cycle;Signal;HPM_P1;HPM_P2
2022/06/06 00:00:47;;;;;;;12.10;10.93;;;;;;;11.53;100.00;100330.84;1748130;82;21015;-70
2022/06/06 00:03:16;;;;;;;21.87;12.07;;;;;;;11.51;100.00;100338.80;1748299;82;21359;-71
2022/06/06 00:05:44;;;;;;;16.02;13.40;;;;;;;11.47;100.00;100334.55;1747886;82;21104;-70
2022/06/06 00:08:12;;;;;;;14.00;11.63;;;;;;;11.46;100.00;100344.70;1748027;82;21033;-70
2022/06/06 00:10:42;;;;;;;14.18;11.63;;;;;;;11.51;100.00;100337.94;1748020;82;21541;-70
2022/06/06 00:13:10;;;;;;;15.72;11.95;;;;;;;11.50;100.00;100334.45;1747735;82;21045;-70
2022/06/06 00:15:36;;;;;;;17.32;12.45;;;;;;;11.48;100.00;100341.55;1747914;82;21018;-70
2022/06/06 00:18:03;;;;;;;12.80;11.50;;;;;;;11.43;100.00;100335.57;1748112;82;20997;-70
2022/06/06 00:20:31;;;;;;;19.98;14.35;;;;;;;11.43;100.00;100341.31;1747950;82;21078;-69
2022/06/06 00:22:58;;;;;;;14.55;11.22;;;;;;;11.40;100.00;100341.44;1748155;82;21237;-71
2022/06/06 00:25:25;;;;;;;18.55;13.10;;;;;;;11.38;100.00;100339.31;1748393;82;21049;-70
2022/06/06 00:27:52;;;;;;;13.93;11.38;;;;;;;11.36;100.00;100338.03;1748097;82;21029;-70
2022/06/06 00:30:20;;;;;;;16.40;12.05;;;;;;;11.37;100.00;100330.55;1748208;82;21049;-71
2022/06/06 00:35:32;;;;;;;19.48;14.03;;;;;;;11.38;100.00;100339.31;1747901;82;21581;-70
2022/06/06 00:37:58;;;;;;;14.83;12.28;;;;;;;11.40;100.00;100337.02;1748277;82;21010;-70
2022/06/06 00:40:26;;;;;;;18.67;12.60;;;;;;;11.41;100.00;100334.80;1720301;82;21077;-70
2022/06/06 00:42:52;;;;;;;15.53;12.73;;;;;;;11.38;100.00;100334.89;1748217;82;21073;-70
2022/06/06 00:45:33;;;;;;;18.12;13.40;;;;;;;11.36;100.00;100341.99;1748041;82;21045;-70
2022/06/06 00:48:22;;;;;;;;;;;;;;;11.34;100.00;100343.39;1750596;82;21173;-70
2022/06/06 00:50:57;;;;;;;14.93;12.53;;;;;;;11.31;100.00;100341.30;1747953;82;20174;-70
2022/06/06 00:53:34;;;;;;;15.30;13.53;;;;;;;11.27;100.00;100350.23;1746929;82;21585;-71
2022/06/06 00:56:20;;;;;;;15.95;13.38;;;;;;;11.22;100.00;100345.59;1747884;82;21053;-70
2022/06/06 00:58:51;;;;;;;24.98;17.95;;;;;;;11.19;100.00;100347.03;1748109;82;21046;-69
2022/06/06 01:01:17;;;;;;;32.30;23.95;;;;;;;11.13;100.00;100341.08;1748044;82;21216;-69
2022/06/06 01:03:45;;;;;;;30.90;23.67;;;;;;;11.09;100.00;100342.09;1747987;82;21101;-69
2022/06/06 01:06:13;;;;;;;29.77;23.07;;;;;;;11.08;100.00;100345.63;1748035;82;21089;-70
2022/06/06 01:08:42;;;;;;;26.30;20.92;;;;;;;11.05;100.00;100347.53;1748319;82;21564;-71
2022/06/06 01:11:09;;;;;;;25.17;19.87;;;;;;;11.01;100.00;100346.77;1720978;82;21092;-72
2022/06/06 01:13:36;;;;;;;21.23;18.35;;;;;;;11.00;100.00;100347.69;1748226;82;21535;-72
2022/06/06 01:16:33;;;;;;;25.23;17.92;;;;;;;10.99;100.00;100350.38;1748111;82;22084;-71
2022/06/06 01:19:18;;;;;;;26.23;17.25;;;;;;;10.96;100.00;100351.34;1715171;82;21048;-70
2022/06/06 01:22:27;;;;;;;21.17;15.98;;;;;;;10.98;100.00;100357.89;1748046;82;21089;-72
2022/06/06 01:25:32;;;;;;;25.20;17.05;;;;;;;10.99;100.00;100354.33;1748498;82;21048;-71
2022/06/06 01:28:37;;;;;;;21.65;17.27;;;;;;;10.94;100.00;100347.90;1748107;82;21604;-71
2022/06/06 01:31:08;;;;;;;19.20;16.42;;;;;;;10.92;100.00;100353.21;1748086;81;21518;-70
2022/06/06 01:33:56;;;;;;;20.25;15.55;;;;;;;10.87;100.00;100345.93;1748189;82;21026;-68
2022/06/06 01:36:25;;;;;;;19.05;16.17;;;;;;;10.84;100.00;100342.56;1748239;82;21093;-71
2022/06/06 01:38:52;;;;;;;21.65;17.32;;;;;;;10.80;100.00;100337.84;1748041;82;21578;-70
2022/06/06 01:41:27;;;;;;;20.45;17.20;;;;;;;10.79;100.00;100344.47;1748241;82;21545;-70
2022/06/06 01:44:10;;;;;;;21.37;16.97;;;;;;;10.76;100.00;100340.63;1746775;82;21592;-70
2022/06/06 01:46:38;;;;;;;18.17;15.10;;;;;;;10.74;100.00;100335.87;1747968;82;21052;-71
2022/06/06 01:49:08;;;;;;;20.37;16.55;;;;;;;10.73;100.00;100342.06;1747836;82;21038;-70
2022/06/06 01:51:35;;;;;;;19.23;15.43;;;;;;;10.70;100.00;100345.20;1748401;82;21064;-70
2022/06/06 01:54:02;;;;;;;18.75;14.75;;;;;;;10.68;100.00;100336.49;1748180;82;21152;-69
2022/06/06 01:56:32;;;;;;;16.20;13.05;;;;;;;10.69;100.00;100341.30;1748035;82;21041;-70
2022/06/06 01:58:59;;;;;;;13.60;12.18;;;;;;;10.67;100.00;100347.95;1748317;82;21620;-72
2022/06/06 02:01:27;;;;;;;15.30;12.15;;;;;;;10.67;100.00;100345.32;1748097;82;22247;-70
2022/06/06 02:03:53;;;;;;;16.70;13.80;;;;;;;10.68;100.00;100349.66;1747983;82;21014;-69
2022/06/06 02:06:20;;;;;;;13.93;12.47;;;;;;;10.68;100.00;100352.30;1747971;82;21106;-70
2022/06/06 02:08:47;;;;;;;16.17;13.03;;;;;;;10.68;100.00;100354.93;1747823;82;21108;-71
2022/06/06 02:11:14;;;;;;;19.90;13.65;;;;;;;10.69;100.00;100354.00;1747868;82;21026;-71
2022/06/06 02:13:41;;;;;;;16.17;14.03;;;;;;;10.68;100.00;100352.30;1748125;82;21026;-70
2022/06/06 02:16:08;;;;;;;18.07;13.20;;;;;;;10.68;100.00;100354.08;1747848;82;21068;-70
2022/06/06 02:18:35;;;;;;;19.62;14.30;;;;;;;10.66;100.00;100352.80;1747721;82;21228;-70
2022/06/06 02:21:04;;;;;;;16.37;14.45;;;;;;;10.67;100.00;100354.97;1747703;82;21078;-70
2022/06/06 02:23:31;;;;;;;16.02;14.25;;;;;;;10.65;100.00;100356.36;1747886;82;21085;-70
2022/06/06 02:25:59;;;;;;;17.90;14.65;;;;;;;10.67;100.00;100359.81;1747879;82;21100;-70
2022/06/06 02:28:26;;;;;;;16.52;14.83;;;;;;;10.67;100.00;100363.76;1748380;82;21080;-70
2022/06/06 02:30:52;;;;;;;16.62;14.83;;;;;;;10.67;100.00;100371.66;1747802;81;21125;-70
2022/06/06 02:33:19;;;;;;;17.73;14.80;;;;;;;10.69;100.00;100373.75;1747771;82;21573;-71
2022/06/06 02:35:45;;;;;;;20.32;14.28;;;;;;;10.73;100.00;100382.89;1747970;82;21030;-70
2022/06/06 02:38:13;;;;;;;18.20;13.62;;;;;;;10.74;100.00;100376.70;1747900;82;21060;-70
2022/06/06 02:40:41;;;;;;;22.75;14.60;;;;;;;10.78;100.00;100379.64;1748217;82;21676;-71
2022/06/06 02:43:07;;;;;;;16.00;14.10;;;;;;;10.83;100.00;100379.02;1747876;82;22257;-71
2022/06/06 02:45:34;;;;;;;17.37;14.07;;;;;;;10.88;100.00;100374.45;1747789;82;21030;-69
2022/06/06 02:48:00;;;;;;;15.35;12.95;;;;;;;10.96;100.00;100371.57;1747933;82;21061;-70
2022/06/06 02:50:30;;;;;;;18.42;13.98;;;;;;;11.03;100.00;100377.88;1748210;82;21136;-70
2022/06/06 02:52:58;;;;;;;15.80;13.25;;;;;;;11.12;100.00;100376.23;1748251;82;21010;-70
2022/06/06 02:55:24;;;;;;;14.63;13.05;;;;;;;11.20;100.00;100370.69;1748285;82;21220;-69
2022/06/06 02:57:52;;;;;;;15.53;13.30;;;;;;;11.31;100.00;100370.31;1748252;82;21038;-71
2022/06/06 03:00:24;;;;;;;15.30;13.32;;;;;;;11.39;100.00;100370.91;1748266;82;21644;-69
2022/06/06 03:02:54;;;;;;;17.20;13.48;;;;;;;11.50;100.00;100374.02;1748407;82;21330;-70
2022/06/06 03:05:20;;;;;;;16.45;14.20;;;;;;;11.61;100.00;100375.38;1748133;82;21132;-70
2022/06/06 03:08:23;;;;;;;16.70;14.03;;;;;;;11.72;100.00;100378.48;1748205;82;21423;-71
2022/06/06 03:11:11;;;;;;;17.30;13.58;;;;;;;11.82;100.00;100374.55;1748225;82;24766;-70
2022/06/06 03:14:24;;;;;;;15.45;11.90;;;;;;;11.97;100.00;100378.44;1718639;83;21061;-69
2022/06/06 03:23:23;;;;;;;13.55;10.55;;;;;;;12.46;100.00;100384.86;1718643;83;21153;-69
2022/06/06 03:26:25;;;;;;;14.28;10.10;;;;;;;12.67;100.00;100386.61;1718467;83;21030;-70
2022/06/06 03:29:06;;;;;;;14.30;11.78;;;;;;;12.86;100.00;100388.48;1718654;83;21096;-71
2022/06/06 03:32:03;;;;;;;13.35;10.93;;;;;;;13.06;100.00;100383.20;1718467;83;22263;-70
2022/06/06 03:34:54;;;;;;;12.35;10.78;;;;;;;13.27;100.00;100383.19;1718373;83;21104;-70
2022/06/06 03:37:45;;;;;;;10.78;9.68;;;;;;;13.50;100.00;100380.41;1718653;83;21612;-70
2022/06/06 03:40:24;;;;;;;10.98;9.63;;;;;;;13.74;100.00;100389.50;1718163;83;21498;-71
2022/06/06 03:43:05;;;;;;;11.75;9.30;;;;;;;13.97;100.00;100386.64;1718311;83;21061;-71
2022/06/06 03:45:59;;;;;;;12.53;9.53;;;;;;;14.20;100.00;100387.34;1718273;83;21038;-72
2022/06/06 03:48:50;;;;;;;14.65;8.40;;;;;;;14.44;100.00;100386.13;1718155;83;21041;-70
2022/06/06 03:51:40;;;;;;;7.70;5.75;;;;;;;14.74;100.00;100388.23;1718267;83;21117;-69
2022/06/06 03:54:30;;;;;;;10.72;6.65;;;;;;;15.06;100.00;100383.95;1718193;83;21076;-71
2022/06/06 03:57:19;;;;;;;11.70;6.87;;;;;;;15.40;100.00;100386.64;1718537;83;21041;-71
2022/06/06 03:59:50;;;;;;;10.68;6.67;;;;;;;15.76;100.00;100388.28;1718378;83;21018;-70
2022/06/06 04:02:21;;;;;;;7.25;6.40;;;;;;;16.09;100.00;100382.45;1718492;83;21053;-71
2022/06/06 04:04:48;;;;;;;8.45;5.90;;;;;;;16.38;100.00;100385.72;1718507;83;21713;-72
2022/06/06 04:07:14;;;;;;;9.30;5.37;;;;;;;16.68;100.00;100380.44;1718528;83;21101;-70
2022/06/06 04:09:42;;;;;;;6.40;5.17;;;;;;;16.98;98.21;100392.45;1718207;83;21506;-71
2022/06/06 04:12:37;;;;;;;10.63;4.67;;;;;;;17.27;93.65;100391.16;1734448;82;21081;-72
2022/06/06 04:15:15;;;;;;;7.70;5.00;;;;;;;17.55;91.60;100387.66;1747929;82;21037;-70
2022/06/06 04:17:52;;;;;;;7.47;3.90;;;;;;;17.95;88.70;100387.88;1747931;82;21156;-69
2022/06/06 04:20:30;;;;;;;7.30;4.22;;;;;;;18.26;85.65;100394.73;1748132;82;21041;-71
2022/06/06 04:23:08;;;;;;;5.03;4.00;;;;;;;18.58;82.14;100389.11;1748250;82;21124;-70
2022/06/06 04:25:47;;;;;;;5.17;3.83;;;;;;;18.88;81.02;100389.38;1748384;82;22254;-71
2022/06/06 04:28:45;;;;;;;6.28;4.03;;;;;;;19.21;78.59;100390.22;1747612;82;21049;-70
2022/06/06 04:31:26;;;;;;;8.18;4.05;;;;;;;19.51;75.15;100389.92;1737398;81;21252;-71
2022/06/06 04:34:03;;;;;;;9.20;4.95;;;;;;;19.82;72.07;100386.44;1734060;82;21072;-72
2022/06/06 04:36:47;;;;;;;10.35;4.28;;;;;;;20.08;71.09;100387.22;1734177;82;21097;-70
2022/06/06 04:39:25;;;;;;;6.60;3.30;;;;;;;20.30;70.13;100386.02;1720752;82;21042;-72
2022/06/06 04:42:00;;;;;;;5.70;3.85;;;;;;;20.64;67.13;100381.38;1734571;82;21097;-72
2022/06/06 04:44:41;;;;;;;5.17;3.72;;;;;;;20.91;65.68;100386.44;1734206;82;21723;-71
2022/06/06 04:47:29;;;;;;;7.80;4.03;;;;;;;21.12;63.79;100383.47;1734212;82;21038;-71
2022/06/06 04:49:57;;;;;;;5.97;4.00;;;;;;;21.34;61.76;100391.17;1733891;82;21546;-71
2022/06/06 04:52:24;;;;;;;4.70;3.75;;;;;;;21.55;62.14;100390.00;1734378;82;21086;-72
2022/06/06 04:54:50;;;;;;;6.03;3.20;;;;;;;21.83;60.87;100394.02;1734084;82;21077;-70
2022/06/06 04:57:18;;;;;;;6.87;3.95;;;;;;;22.06;58.14;100389.98;1734578;82;21048;-72
2022/06/06 04:59:45;;;;;;;4.85;3.60;;;;;;;22.31;55.30;100387.52;1734018;82;21046;-72
2022/06/06 05:02:12;;;;;;;6.37;4.12;;;;;;;22.47;54.81;100392.48;1734476;82;21113;-71
2022/06/06 05:04:38;;;;;;;8.33;3.52;;;;;;;22.74;54.00;100389.33;1734060;82;21093;-71
2022/06/06 05:07:19;;;;;;;3.92;3.00;;;;;;;22.99;52.88;100386.80;1733999;82;21592;-71
2022/06/06 05:10:20;;;;;;;5.30;3.00;;;;;;;23.17;50.30;100389.26;1734282;82;21128;-72
2022/06/06 05:13:12;;;;;;;4.92;3.12;;;;;;;23.25;51.38;100380.02;1664410;83;21049;-71
2022/06/06 05:15:58;;;;;;;;;;;;;;;23.53;50.80;100387.03;1707493;84;21101;-71
2022/06/06 05:18:39;;;;;;;9.53;2.67;;;;;;;23.83;49.89;100388.05;1705130;84;20150;-71
2022/06/06 05:21:21;;;;;;;;;;;;;;;23.87;45.60;100385.45;1707589;84;21066;-71
2022/06/06 05:24:16;;;;;;;5.45;2.35;;;;;;;23.85;45.21;100386.07;1704660;83;20560;-72
2022/06/06 05:26:55;;;;;;;4.05;2.20;;;;;;;23.85;44.48;100388.77;1704674;84;21074;-73
2022/06/06 05:29:45;;;;;;;6.03;2.25;;;;;;;23.81;44.48;100390.02;1704373;83;21129;-71
2022/06/06 05:32:26;;;;;;;2.40;2.20;;;;;;;23.73;43.60;100393.36;1704959;84;21061;-71
2022/06/06 05:35:28;;;;;;;17.55;2.33;;;;;;;23.72;42.29;100393.48;1704596;84;21077;-71
2022/06/06 05:38:38;;;;;;;5.45;2.37;;;;;;;23.79;43.36;100393.36;1704535;84;21189;-72
2022/06/06 05:41:30;;;;;;;2.87;2.12;;;;;;;24.00;43.31;100395.48;1704587;84;21109;-72
2022/06/06 05:44:10;;;;;;;6.40;2.40;;;;;;;24.17;42.06;100398.48;1683470;83;21109;-72
2022/06/06 05:46:55;;;;;;;4.85;2.17;;;;;;;24.34;42.30;100397.83;1703350;83;21089;-71
2022/06/06 05:49:31;;;;;;;5.92;2.25;;;;;;;24.65;41.17;100404.47;1704763;84;21081;-71
2022/06/06 05:52:22;;;;;;;3.92;1.90;;;;;;;24.86;40.50;100407.87;1704937;84;21305;-71
2022/06/06 05:55:27;;;;;;;3.15;2.08;;;;;;;25.04;40.45;100408.50;1705091;84;21617;-72
2022/06/06 05:58:43;;;;;;;3.55;2.25;;;;;;;25.30;38.21;100408.27;1705025;83;21625;-71
2022/06/06 06:01:53;;;;;;;4.95;1.98;;;;;;;25.47;37.69;100402.63;1705104;84;21017;-71
2022/06/06 06:04:48;;;;;;;2.67;1.90;;;;;;;25.68;37.67;100404.27;1704871;84;21061;-71
2022/06/06 06:07:42;;;;;;;2.27;1.65;;;;;;;25.98;36.99;100411.77;1704443;83;21182;-72
2022/06/06 06:10:26;;;;;;;2.70;1.62;;;;;;;25.96;35.55;100410.56;1704592;84;21603;-74
2022/06/06 06:13:14;;;;;;;3.25;1.60;;;;;;;25.94;35.81;100415.26;1729287;82;21023;-71
2022/06/06 06:15:43;;;;;;;5.33;1.90;;;;;;;25.90;36.24;100408.45;1734056;82;20971;-72
2022/06/06 06:18:24;;;;;;;2.42;1.65;;;;;;;25.83;35.39;100405.47;1734335;82;21077;-72
2022/06/06 06:20:59;;;;;;;4.05;1.60;;;;;;;25.87;36.04;100414.16;1733611;81;21662;-70
2022/06/06 06:23:29;;;;;;;3.45;1.80;;;;;;;25.93;36.22;100409.02;1734204;82;21062;-71
2022/06/06 06:25:55;;;;;;;3.67;1.80;;;;;;;26.03;35.55;100412.16;1734099;82;22182;-72
2022/06/06 06:28:22;;;;;;;5.28;1.80;;;;;;;26.12;35.27;100413.96;1734342;82;21065;-70
2022/06/06 06:31:07;;;;;;;4.40;1.80;;;;;;;26.14;35.33;100414.16;1733891;81;21049;-71
2022/06/06 06:34:04;;;;;;;2.75;1.80;;;;;;;26.22;35.02;100417.95;1733983;82;22075;-72
2022/06/06 06:36:48;;;;;;;2.50;1.90;;;;;;;26.38;35.50;100418.12;1733863;82;21479;-71
2022/06/06 06:39:43;;;;;;;3.80;1.92;;;;;;;26.63;34.83;100417.08;1733694;82;21061;-72
2022/06/06 06:45:26;;;;;;;2.05;1.50;;;;;;;27.29;33.40;100409.05;1781427;79;22674;-72
2022/06/06 06:48:03;;;;;;;4.22;1.65;;;;;;;27.50;33.29;100411.38;1748182;82;21025;-71
2022/06/06 06:50:46;;;;;;;2.02;1.62;;;;;;;27.83;32.14;100417.33;1746966;82;21893;-71
2022/06/06 06:53:40;;;;;;;8.00;2.02;;;;;;;28.12;31.53;100414.75;1748148;82;21054;-70
2022/06/06 06:56:18;;;;;;;3.33;1.67;;;;;;;28.31;31.20;100411.42;1747862;81;21057;-71
2022/06/06 06:58:52;;;;;;;4.30;2.02;;;;;;;28.41;30.30;100413.47;1747529;82;21047;-71
2022/06/06 07:01:36;;;;;;;4.28;1.77;;;;;;;28.30;30.32;100417.84;1748037;81;21124;-71
2022/06/06 07:10:08;;;;;;;2.58;1.92;;;;;;;27.93;30.12;100418.58;1726894;82;21006;-70
2022/06/06 07:12:50;;;;;;;2.87;1.50;;;;;;;27.85;30.59;100425.80;1747808;82;21552;-70
2022/06/06 07:15:46;;;;;;;3.33;1.60;;;;;;;27.68;30.52;100418.92;1746839;81;21054;-73
2022/06/06 07:18:17;;;;;;;2.00;1.50;;;;;;;27.69;31.79;100416.55;1747938;82;21568;-72
2022/06/06 07:20:46;;;;;;;4.45;1.98;;;;;;;27.92;31.07;100416.02;1748005;82;21049;-71
2022/06/06 07:23:14;;;;;;;4.28;2.10;;;;;;;28.00;31.21;100410.66;1748360;82;21057;-72
2022/06/06 07:25:48;;;;;;;6.70;2.00;;;;;;;28.18;31.47;100403.27;1748135;82;21124;-73
2022/06/06 07:28:19;;;;;;;2.95;1.62;;;;;;;28.52;30.40;100407.77;1747849;82;21073;-71
2022/06/06 07:31:09;;;;;;;3.50;1.90;;;;;;;28.51;29.77;100405.25;1747888;81;21038;-73
2022/06/06 07:33:51;;;;;;;1.85;1.60;;;;;;;28.19;30.19;100413.08;1746096;82;21030;-72
2022/06/06 07:36:44;;;;;;;3.93;1.80;;;;;;;28.03;31.01;100413.03;1739246;82;21069;-72
2022/06/06 07:39:52;;;;;;;3.22;1.47;;;;;;;28.24;30.35;100417.48;1747935;82;21069;-72
2022/06/06 07:42:36;;;;;;;6.58;2.00;;;;;;;28.54;30.18;100413.87;1747931;82;21069;-72
2022/06/06 07:45:17;;;;;;;7.80;2.00;;;;;;;28.64;28.57;100419.13;1748253;81;21668;-71
2022/06/06 07:48:23;;;;;;;6.42;2.08;;;;;;;28.56;30.05;100418.62;1746381;82;21069;-73
2022/06/06 07:50:58;;;;;;;3.47;1.80;;;;;;;28.89;30.01;100410.52;1748534;82;21068;-72
2022/06/06 07:53:56;;;;;;;2.77;1.77;;;;;;;29.36;28.63;100411.20;1748749;81;21108;-72
2022/06/06 07:57:07;;;;;;;3.10;1.72;;;;;;;29.57;27.67;100417.95;1748171;82;21800;-71
2022/06/06 07:59:58;;;;;;;2.80;1.55;;;;;;;29.38;27.66;100417.80;1748068;82;21261;-71
2022/06/06 08:02:53;;;;;;;2.22;1.55;;;;;;;29.00;27.95;100422.38;1747864;82;21058;-71
2022/06/06 08:05:43;;;;;;;4.60;1.60;;;;;;;29.00;28.04;100414.25;1728314;82;21092;-73
2022/06/06 08:08:45;;;;;;;3.72;1.80;;;;;;;29.08;28.19;100418.88;1748414;82;21053;-70
2022/06/06 08:11:17;;;;;;;3.10;1.80;;;;;;;28.96;27.75;100412.05;1743589;82;21089;-72
2022/06/06 08:14:11;;;;;;;2.55;1.65;;;;;;;29.01;27.65;100406.47;1714338;83;21546;-70
2022/06/06 08:17:02;;;;;;;3.72;1.50;;;;;;;29.09;28.18;100412.94;1718399;83;21049;-72
2022/06/06 08:19:58;;;;;;;1.92;1.45;;;;;;;29.43;27.40;100405.94;1718420;83;21092;-71
2022/06/06 08:22:25;;;;;;;1.67;1.45;;;;;;;29.83;26.93;100402.27;1718917;83;21018;-72
2022/06/06 08:24:56;;;;;;;3.42;1.67;;;;;;;30.06;26.25;100400.14;1718306;83;21069;-72
2022/06/06 08:27:24;;;;;;;3.27;1.40;;;;;;;29.92;26.13;100392.75;1718550;83;21226;-72
2022/06/06 08:29:51;;;;;;;2.67;1.50;;;;;;;29.72;25.85;100400.45;1691834;83;21584;-72
2022/06/06 08:32:18;;;;;;;6.42;1.90;;;;;;;29.33;26.49;100407.46;1718225;83;21039;-73
2022/06/06 08:34:45;;;;;;;5.83;1.70;;;;;;;29.27;27.61;100402.74;1718174;83;21101;-72
2022/06/06 08:37:39;;;;;;;3.80;1.50;;;;;;;29.27;27.61;100402.74;1718363;83;21077;-72
2022/06/06 08:41:00;;;;;;;1.45;1.30;;;;;;;29.39;27.13;100401.88;1693527;83;21160;-71
2022/06/06 08:43:55;;;;;;;3.65;1.20;;;;;;;29.45;26.74;100397.96;1718247;83;21097;-72
2022/06/06 08:46:38;;;;;;;2.15;1.60;;;;;;;29.47;26.47;100398.64;1717952;83;21045;-72
2022/06/06 08:50:44;;;;;;;3.67;1.60;;;;;;;29.29;26.61;100402.06;1717622;83;21013;-72
2022/06/06 08:51:51;;;;;;;3.95;1.50;;;;;;;29.17;26.79;100397.51;1713239;83;21032;-72
2022/06/06 08:54:30;;;;;;;2.37;1.40;;;;;;;29.25;26.83;100400.71;1718171;83;21815;-71
2022/06/06 08:57:33;;;;;;;1.52;1.40;;;;;;;29.53;26.34;100384.03;1718671;83;21070;-72
2022/06/06 09:00:39;;;;;;;3.42;1.60;;;;;;;29.71;26.91;100387.40;1717923;83;21093;-70
2022/06/06 09:03:38;;;;;;;3.25;1.50;;;;;;;29.94;26.39;100392.06;1718277;83;21024;-73
2022/06/06 09:06:38;;;;;;;4.03;1.75;;;;;;;30.22;25.61;100393.27;1718469;83;21597;-72
2022/06/06 09:09:55;;;;;;;3.20;1.30;;;;;;;30.03;24.80;100396.44;1704625;83;21157;-72
2022/06/06 09:12:51;;;;;;;5.22;1.65;;;;;;;29.63;25.47;100396.87;1737072;82;21065;-72
2022/06/06 09:15:31;;;;;;;4.05;1.22;;;;;;;29.40;25.82;100394.93;1747967;82;21049;-72
2022/06/06 09:18:25;;;;;;;4.08;1.98;;;;;;;29.56;25.29;100381.80;1747071;82;21053;-72
2022/06/06 09:21:06;;;;;;;4.25;1.82;;;;;;;29.48;26.09;100393.53;1727342;82;21104;-71
2022/06/06 09:24:17;;;;;;;2.20;1.65;;;;;;;29.56;25.06;100386.39;1748173;82;21537;-72
2022/06/06 09:28:12;;;;;;;2.45;1.50;;;;;;;29.41;25.33;100393.89;1846548;76;22507;-93
2022/06/06 09:31:34;;;;;;;3.42;1.60;;;;;;;29.42;25.50;100394.22;1818016;78;21036;-94
2022/06/06 09:34:26;;;;;;;3.33;1.47;;;;;;;30.06;24.73;100390.64;1819445;78;21116;-93
2022/06/06 09:37:38;;;;;;;5.55;1.77;;;;;;;29.86;25.06;100387.50;1817562;78;21012;-92
2022/06/06 09:40:49;;;;;;;2.98;1.37;;;;;;;29.86;25.06;100387.50;1809963;79;20982;-92
2022/06/06 09:43:37;;;;;;;4.92;1.50;;;;;;;29.87;25.71;100394.64;1811532;79;21074;-92
2022/06/06 09:46:35;;;;;;;8.30;1.60;;;;;;;29.79;26.08;100395.49;1811448;79;21277;-94
2022/06/06 09:49:19;;;;;;;3.37;1.32;;;;;;;29.51;25.79;100395.05;1782784;79;20981;-93
2022/06/06 09:52:08;;;;;;;3.65;1.60;;;;;;;29.12;26.91;100389.53;1810401;79;20981;-92
2022/06/06 10:02:00;;;;;;;5.15;1.80;;;;;;;28.54;28.50;100388.13;1733917;81;21076;-92
2022/06/06 10:04:58;;;;;;;3.47;1.60;;;;;;;28.34;28.80;100394.32;1770416;81;22395;-92
2022/06/06 10:08:04;;;;;;;6.05;1.90;;;;;;;28.05;29.12;100392.06;1720138;81;21185;-91
2022/06/06 10:10:58;;;;;;;2.33;1.70;;;;;;;27.95;29.32;100394.03;1758027;81;21601;-91
2022/06/06 10:14:06;;;;;;;2.62;1.67;;;;;;;28.10;28.43;100388.34;1743141;82;21080;-93
2022/06/06 10:17:11;;;;;;;5.40;1.45;;;;;;;28.47;27.85;100391.17;1681540;84;21073;-92
2022/06/06 10:19:50;;;;;;;4.95;1.47;;;;;;;28.82;27.07;100386.46;1749117;79;21139;-93
2022/06/06 10:22:40;;;;;;;2.08;1.32;;;;;;;29.10;26.45;100388.34;1752612;79;20991;-94
2022/06/06 10:25:13;;;;;;;;;;;;;;;29.35;26.38;100386.44;1755664;78;21053;-92
2022/06/06 10:27:48;;;;;;;4.70;1.42;;;;;;;29.77;25.11;100374.49;1752423;78;20135;-93
2022/06/06 10:30:44;;;;;;;3.02;1.50;;;;;;;29.99;25.29;100374.73;1752079;78;20990;-91
2022/06/06 10:33:49;;;;;;;2.75;1.22;;;;;;;30.15;25.38;100384.14;1751208;78;21247;-94
2022/06/06 10:36:42;;;;;;;1.92;1.20;;;;;;;30.45;23.15;100373.47;1685428;82;21041;-92
2022/06/06 10:40:08;;;;;;;1.98;1.20;;;;;;;30.45;23.15;100373.47;1771421;81;20977;-93
2022/06/06 10:43:01;;;;;;;5.37;1.52;;;;;;;30.09;23.51;100363.12;1773366;81;21775;-92
2022/06/06 10:45:48;;;;;;;5.42;1.85;;;;;;;29.69;25.55;100360.95;1760365;81;21073;-91
2022/06/06 10:48:42;;;;;;;3.37;1.60;;;;;;;29.39;26.50;100361.18;1771734;81;21225;-91
2022/06/06 10:51:37;;;;;;;2.62;1.70;;;;;;;28.97;26.77;100367.67;1759119;81;21087;-93
2022/06/06 10:54:36;;;;;;;2.27;1.57;;;;;;;28.61;27.29;100366.13;1773770;81;20971;-93
2022/06/06 10:57:34;;;;;;;1.60;1.35;;;;;;;28.23;27.13;100363.00;1760429;81;21028;-93
2022/06/06 11:00:40;;;;;;;7.55;1.60;;;;;;;28.01;28.33;100358.20;1774597;77;21111;-92
2022/06/06 11:03:49;;;;;;;2.60;1.42;;;;;;;27.98;27.49;100350.42;1760825;78;21188;-93
2022/06/06 11:06:48;;;;;;;3.62;1.70;;;;;;;27.61;28.11;100357.01;1771787;81;21028;-93
2022/06/06 11:09:35;;;;;;;4.25;1.32;;;;;;;27.45;29.31;100359.60;1660659;85;21170;-92
2022/06/06 11:12:27;;;;;;;2.42;1.70;;;;;;;27.63;28.11;100359.05;1724969;81;21080;-93
2022/06/06 11:14:54;;;;;;;9.35;1.80;;;;;;;27.67;27.78;100345.52;1779906;80;21009;-94
2022/06/06 11:18:02;;;;;;;5.37;1.72;;;;;;;27.65;28.22;100346.69;1779681;80;21163;-93
2022/06/06 11:20:58;;;;;;;4.37;1.77;;;;;;;27.61;28.67;100343.48;1779610;80;21001;-92
2022/06/06 11:23:49;;;;;;;4.83;1.77;;;;;;;27.50;29.66;100343.77;1779570;80;21080;-93
2022/06/06 11:26:34;;;;;;;2.58;1.50;;;;;;;27.74;28.88;100345.20;1686741;84;26799;-93
2022/06/06 11:29:36;;;;;;;3.62;1.45;;;;;;;28.10;28.76;100340.97;1686039;85;21185;-92
2022/06/06 11:32:38;;;;;;;3.95;1.40;;;;;;;28.46;27.31;100336.64;1753845;80;21211;-93
2022/06/06 11:35:30;;;;;;;3.58;1.42;;;;;;;28.78;27.82;100342.61;1779755;80;21093;-92
2022/06/06 11:38:41;;;;;;;4.12;1.30;;;;;;;29.26;26.75;100344.08;1779644;80;21056;-92
2022/06/06 11:41:28;;;;;;;2.85;1.50;;;;;;;29.49;26.07;100336.91;1779707;80;21064;-93
2022/06/06 11:44:50;;;;;;;3.65;1.47;;;;;;;29.58;25.75;100328.73;1779600;80;21044;-93
2022/06/06 11:48:10;;;;;;;3.80;1.40;;;;;;;29.59;25.69;100326.36;1779467;80;21185;-92
2022/06/06 11:51:06;;;;;;;4.65;1.40;;;;;;;29.48;26.59;100328.42;1780261;80;21060;-92
2022/06/06 11:53:51;;;;;;;2.77;1.30;;;;;;;29.57;26.32;100322.98;1756236;80;21021;-93
2022/06/06 11:56:57;;;;;;;3.40;1.52;;;;;;;29.42;24.90;100320.13;1779297;80;21260;-94
2022/06/06 11:59:38;;;;;;;2.05;1.70;;;;;;;29.42;24.90;100320.13;1778958;80;21103;-92
2022/06/06 12:02:32;;;;;;;6.30;1.95;;;;;;;29.24;24.79;100314.92;1779265;80;21872;-94
2022/06/06 12:05:22;;;;;;;7.40;1.70;;;;;;;29.22;26.23;100308.86;1748952;80;21045;-94
2022/06/06 12:08:16;;;;;;;6.60;1.57;;;;;;;29.32;26.90;100314.91;1780186;80;21374;-92
2022/06/06 12:10:58;;;;;;;5.20;1.70;;;;;;;29.15;26.19;100320.03;1780676;80;21017;-91
2022/06/06 12:14:06;;;;;;;2.05;1.60;;;;;;;28.72;27.08;100320.76;1780511;80;21053;-92
2022/06/06 12:17:06;;;;;;;5.40;1.60;;;;;;;28.39;27.62;100323.41;1781231;80;21107;-93
2022/06/06 12:19:50;;;;;;;2.03;1.43;;;;;;;28.10;27.59;100324.72;1767157;80;20993;-94
2022/06/06 12:22:47;;;;;;;1.80;1.42;;;;;;;27.86;27.72;100321.94;1781661;80;21189;-93
2022/06/06 12:25:59;;;;;;;1.50;1.40;;;;;;;27.72;27.88;100324.73;1781671;80;21009;-93
2022/06/06 12:28:53;;;;;;;3.08;1.60;;;;;;;27.93;28.25;100325.68;1782376;80;21072;-93
2022/06/06 12:32:07;;;;;;;1.82;1.30;;;;;;;28.24;26.70;100309.69;1782080;79;21110;-92
2022/06/06 12:35:04;;;;;;;2.47;1.40;;;;;;;28.42;26.62;100320.38;1782013;79;21029;-93
2022/06/06 12:38:02;;;;;;;3.70;1.72;;;;;;;28.56;26.97;100302.64;1782288;79;20915;-92
2022/06/06 12:41:23;;;;;;;3.10;1.55;;;;;;;28.43;27.68;100305.81;1781737;79;21018;-94
2022/06/06 12:44:04;;;;;;;2.35;1.40;;;;;;;28.36;27.70;100302.08;1780403;79;26328;-92
2022/06/06 12:47:03;;;;;;;3.92;1.60;;;;;;;28.28;27.61;100312.92;1779246;80;21141;-94
2022/06/06 12:49:51;;;;;;;3.58;1.30;;;;;;;28.09;27.70;100309.51;1766956;80;21475;-94
2022/06/06 12:52:49;;;;;;;4.47;1.70;;;;;;;27.89;27.86;100314.87;1778031;80;21509;-92
2022/06/06 12:58:45;;;;;;;7.08;1.60;;;;;;;27.74;28.37;100305.97;1777937;80;21057;-93
2022/06/06 13:01:38;;;;;;;3.05;1.30;;;;;;;27.85;27.74;100299.97;1778290;80;21141;-92
2022/06/06 13:04:40;;;;;;;1.55;1.40;;;;;;;27.85;27.36;100301.32;1778905;80;21025;-93
2022/06/06 13:07:26;;;;;;;;;;;;;;;27.75;27.50;100299.56;1782201;80;21072;-93